Time;durP1;ratioP1;P1;durP2;ratioP2;P2;SDS_P1;SDS_P2;PMS_P1;PMS_P2;Temp;Humidity;BMP_temperature;BMP_pressure;BME280_temperature;BME280_humidity;BME280_pressure;Samples;Min_cycle;Max_cycle;Signal;HPM_P1;HPM_P2
2023/06/03 00:02:00;;;;;;;4.43;3.30;;;13.70;99.90;;;;;;5037646;28;20485;-69
2023/06/03 00:04:28;;;;;;;4.07;2.97;;;13.70;99.90;;;;;;5042649;28;20827;-69
2023/06/03 00:06:56;;;;;;;4.30;3.00;;;13.60;99.90;;;;;;5050714;28;20451;-68
2023/06/03 00:09:24;;;;;;;4.60;2.67;;;13.60;99.90;;;;;;5049196;28;20482;-69
2023/06/03 00:11:51;;;;;;;7.80;3.50;;;13.50;99.90;;;;;;5050465;28;20833;-68
2023/06/03 00:14:18;;;;;;;3.60;3.30;;;13.60;99.90;;;;;;5049863;28;20507;-68
2023/06/03 00:16:46;;;;;;;3.10;2.73;;;13.50;99.90;;;;;;5037405;28;20468;-68
2023/06/03 00:19:14;;;;;;;4.43;3.27;;;13.50;99.90;;;;;;5029836;28;20465;-68
2023/06/03 00:21:41;;;;;;;2.80;2.50;;;13.50;99.90;;;;;;5029558;28;20492;-68
2023/06/03 00:24:08;;;;;;;3.20;2.90;;;13.50;99.90;;;;;;5030473;28;20467;-68
2023/06/03 00:26:36;;;;;;;5.93;2.80;;;13.50;99.90;;;;;;5033580;28;20482;-68
2023/06/03 00:29:03;;;;;;;3.60;2.50;;;13.40;99.90;;;;;;5050166;28;20482;-69
2023/06/03 00:31:29;;;;;;;4.20;3.30;;;13.40;99.90;;;;;;5047737;28;20971;-68
2023/06/03 00:33:56;;;;;;;4.40;3.53;;;13.40;99.90;;;;;;5030544;28;20483;-68
2023/06/03 00:36:23;;;;;;;4.70;3.40;;;13.30;99.90;;;;;;5031741;28;20960;-68
2023/06/03 00:38:49;;;;;;;3.93;3.37;;;13.30;99.90;;;;;;5050245;28;20521;-68
2023/06/03 00:41:18;;;;;;;7.80;3.43;;;13.30;99.90;;;;;;5049954;28;20459;-68
2023/06/03 00:43:46;;;;;;;4.80;2.87;;;13.20;99.90;;;;;;5050738;28;20466;-68
2023/06/03 00:46:16;;;;;;;4.00;3.53;;;13.20;99.90;;;;;;5042687;28;20466;-68
2023/06/03 00:48:42;;;;;;;4.57;3.50;;;13.20;99.90;;;;;;5050415;28;20480;-69
2023/06/03 00:51:09;;;;;;;3.80;3.27;;;13.20;99.90;;;;;;5050279;28;20470;-68
2023/06/03 00:53:36;;;;;;;3.70;3.10;;;13.20;99.90;;;;;;5049888;28;21013;-68
2023/06/03 00:56:03;;;;;;;4.00;2.70;;;13.10;99.90;;;;;;5050342;28;20973;-68
2023/06/03 00:58:31;;;;;;;2.67;2.47;;;13.10;99.90;;;;;;5049907;28;20997;-68
2023/06/03 01:01:00;;;;;;;3.90;2.90;;;13.10;99.90;;;;;;5049494;28;20550;-69
2023/06/03 01:03:26;;;;;;;3.90;3.43;;;13.10;99.90;;;;;;5049608;28;20973;-68
2023/06/03 01:06:14;;;;;;;6.43;3.30;;;13.00;99.90;;;;;;5050168;28;20538;-68
2023/06/03 01:08:46;;;;;;;3.70;3.10;;;13.00;99.90;;;;;;5049801;28;21052;-68
2023/06/03 01:11:20;;;;;;;6.33;3.77;;;13.00;99.90;;;;;;5049203;28;20865;-69
2023/06/03 01:13:55;;;;;;;6.53;3.40;;;12.90;99.90;;;;;;5050385;28;20467;-68
2023/06/03 01:16:26;;;;;;;8.83;3.40;;;12.90;99.90;;;;;;5049812;28;20459;-68
2023/06/03 01:18:55;;;;;;;4.20;3.33;;;12.80;99.90;;;;;;5048550;28;20853;-68
2023/06/03 01:21:24;;;;;;;4.43;3.33;;;12.80;99.90;;;;;;5047001;28;20470;-68
2023/06/03 01:23:52;;;;;;;3.43;3.13;;;12.70;99.90;;;;;;5050323;28;20459;-68
2023/06/03 01:26:19;;;;;;;4.33;3.20;;;12.70;99.90;;;;;;5049895;28;20470;-68
2023/06/03 01:28:49;;;;;;;5.13;3.27;;;12.60;99.90;;;;;;5049969;28;20476;-68
2023/06/03 01:31:17;;;;;;;3.50;3.00;;;12.50;99.90;;;;;;5049877;28;20690;-68
2023/06/03 01:33:45;;;;;;;3.27;2.97;;;12.40;99.90;;;;;;5050216;28;20513;-69
2023/06/03 01:36:13;;;;;;;7.90;3.60;;;12.40;99.90;;;;;;5050128;28;20951;-68
2023/06/03 01:38:40;;;;;;;7.93;3.80;;;12.40;99.90;;;;;;5049487;28;20556;-68
2023/06/03 01:41:08;;;;;;;4.50;3.47;;;12.40;99.90;;;;;;5049656;28;20464;-68
2023/06/03 01:43:35;;;;;;;4.33;3.40;;;12.40;99.90;;;;;;5049728;28;20470;-68
2023/06/03 01:46:02;;;;;;;4.50;3.30;;;12.30;99.90;;;;;;5049975;28;20455;-68
2023/06/03 01:48:29;;;;;;;9.97;3.70;;;12.30;99.90;;;;;;5043170;28;20850;-68
2023/06/03 01:50:55;;;;;;;3.40;3.07;;;12.20;99.90;;;;;;5029748;28;20460;-68
2023/06/03 01:53:23;;;;;;;3.70;3.20;;;12.20;99.90;;;;;;5030028;28;20480;-68
2023/06/03 01:55:50;;;;;;;4.23;3.20;;;12.20;99.90;;;;;;5030336;28;20553;-68
2023/06/03 01:58:18;;;;;;;5.90;3.57;;;12.20;99.90;;;;;;5030232;28;20483;-68
2023/06/03 02:00:45;;;;;;;5.13;3.57;;;12.20;99.90;;;;;;5022777;28;20491;-68
2023/06/03 02:03:12;;;;;;;5.37;3.30;;;12.20;99.90;;;;;;5031015;28;20460;-68
2023/06/03 02:05:39;;;;;;;3.97;2.80;;;12.20;99.90;;;;;;5029704;28;21275;-68
2023/06/03 02:08:07;;;;;;;5.20;3.10;;;12.20;99.90;;;;;;5030107;28;20850;-68
2023/06/03 02:10:34;;;;;;;5.17;3.40;;;12.20;99.90;;;;;;5029076;28;20492;-68
2023/06/03 02:13:00;;;;;;;4.60;2.97;;;12.20;99.90;;;;;;5030226;28;20491;-68
2023/06/03 02:15:29;;;;;;;4.13;3.73;;;12.20;99.90;;;;;;5029460;28;20868;-68
2023/06/03 02:17:56;;;;;;;3.83;2.83;;;12.10;99.90;;;;;;5029827;28;20567;-68
2023/06/03 02:20:23;;;;;;;7.10;3.37;;;12.10;99.90;;;;;;5028876;28;20491;-68
2023/06/03 02:22:50;;;;;;;4.77;3.20;;;12.10;99.90;;;;;;5033314;28;21014;-68
2023/06/03 02:25:17;;;;;;;2.70;2.50;;;12.10;99.90;;;;;;5033261;28;20488;-68
2023/06/03 02:27:43;;;;;;;3.00;2.67;;;12.10;99.90;;;;;;5032929;28;20495;-68
2023/06/03 02:30:10;;;;;;;4.37;3.50;;;12.10;99.90;;;;;;5032789;28;20487;-68
2023/06/03 02:32:38;;;;;;;4.23;2.83;;;12.10;99.90;;;;;;5032814;28;20471;-68
2023/06/03 02:35:06;;;;;;;3.80;3.50;;;12.00;99.90;;;;;;5032838;28;20475;-68
2023/06/03 02:37:33;;;;;;;5.40;3.30;;;12.00;99.90;;;;;;5032714;28;20480;-68
2023/06/03 02:39:59;;;;;;;5.27;2.90;;;12.00;99.90;;;;;;5032524;28;20461;-68
2023/06/03 02:42:26;;;;;;;2.93;2.67;;;11.90;99.90;;;;;;5032513;28;20471;-68
2023/06/03 02:44:53;;;;;;;4.87;2.87;;;11.90;99.90;;;;;;5032918;28;20464;-68
2023/06/03 02:47:19;;;;;;;5.73;3.33;;;11.80;99.90;;;;;;5032762;28;20491;-68
2023/06/03 02:49:49;;;;;;;5.23;3.30;;;11.80;99.90;;;;;;5032098;28;20471;-68
2023/06/03 02:52:16;;;;;;;6.47;3.80;;;11.80;99.90;;;;;;5032601;28;20468;-68
2023/06/03 02:54:42;;;;;;;5.03;3.40;;;11.70;99.90;;;;;;5032279;28;20479;-68
2023/06/03 02:57:09;;;;;;;6.97;3.77;;;11.70;99.90;;;;;;5032710;28;20487;-67
2023/06/03 02:59:36;;;;;;;4.63;3.13;;;11.60;99.90;;;;;;5031965;28;20838;-69
2023/06/03 03:02:02;;;;;;;3.63;3.30;;;11.60;99.90;;;;;;5032481;28;20461;-69
2023/06/03 03:04:33;;;;;;;3.90;2.73;;;11.50;99.90;;;;;;5032093;28;20206;-69
2023/06/03 03:07:02;;;;;;;5.83;3.13;;;11.50;99.90;;;;;;5032460;28;20452;-69
2023/06/03 03:09:28;;;;;;;4.33;3.47;;;11.50;99.90;;;;;;5031811;28;20952;-69
2023/06/03 03:11:55;;;;;;;4.38;3.08;;;11.50;99.90;;;;;;5032007;28;20460;-70
2023/06/03 03:14:22;;;;;;;4.13;3.23;;;11.40;99.90;;;;;;5032109;28;20208;-69
2023/06/03 03:16:48;;;;;;;3.92;3.38;;;11.40;99.90;;;;;;5032103;28;20475;-69
2023/06/03 03:19:15;;;;;;;6.13;3.70;;;11.40;99.90;;;;;;5031982;28;20212;-69
2023/06/03 03:21:42;;;;;;;3.50;3.20;;;11.30;99.90;;;;;;5031735;28;24341;-69
2023/06/03 03:24:11;;;;;;;3.80;3.30;;;11.30;99.90;;;;;;5032101;28;20464;-69
2023/06/03 03:26:38;;;;;;;5.72;3.00;;;11.30;99.90;;;;;;5031755;28;20484;-69
2023/06/03 03:29:06;;;;;;;6.43;3.17;;;11.30;99.90;;;;;;5031694;28;20225;-69
2023/06/03 03:31:33;;;;;;;6.37;3.30;;;11.20;99.90;;;;;;5031349;28;20463;-69
2023/06/03 03:34:00;;;;;;;5.32;3.10;;;11.20;99.90;;;;;;5031404;28;20897;-69
2023/06/03 03:36:30;;;;;;;5.40;3.03;;;11.20;99.90;;;;;;5031521;28;20213;-69
2023/06/03 03:39:02;;;;;;;6.33;3.17;;;11.20;99.90;;;;;;5031719;28;20995;-68
2023/06/03 03:41:31;;;;;;;3.30;3.00;;;11.10;99.90;;;;;;5031285;28;20460;-69
2023/06/03 03:43:59;;;;;;;5.37;2.80;;;11.10;99.90;;;;;;5031746;28;20213;-68
2023/06/03 03:46:25;;;;;;;3.78;3.22;;;11.10;99.90;;;;;;5031366;28;20456;-69
2023/06/03 03:48:52;;;;;;;4.33;3.50;;;11.20;99.90;;;;;;5031137;28;20643;-69
2023/06/03 03:51:19;;;;;;;4.40;3.03;;;11.20;99.90;;;;;;5047276;28;20456;-69
2023/06/03 03:53:47;;;;;;;4.95;2.97;;;11.20;99.90;;;;;;5051230;28;20869;-68
2023/06/03 03:56:17;;;;;;;3.33;3.03;;;11.10;99.90;;;;;;5051460;28;20632;-69
2023/06/03 03:58:46;;;;;;;3.55;2.90;;;11.10;99.90;;;;;;5050680;28;20244;-69
2023/06/03 04:01:15;;;;;;;3.70;2.97;;;11.10;99.90;;;;;;5051030;28;20224;-69
2023/06/03 04:03:45;;;;;;;5.30;2.73;;;11.10;99.90;;;;;;5050765;28;20255;-69
2023/06/03 04:06:14;;;;;;;2.90;2.60;;;11.10;99.90;;;;;;5051149;28;20947;-69
2023/06/03 04:08:43;;;;;;;3.13;2.83;;;11.20;99.90;;;;;;5050479;28;20483;-69
2023/06/03 04:11:20;;;;;;;4.13;3.27;;;11.20;99.90;;;;;;5050513;28;20984;-69
2023/06/03 04:13:48;;;;;;;3.93;3.40;;;11.20;99.90;;;;;;5050756;28;20494;-68
2023/06/03 04:16:47;;;;;;;5.53;3.30;;;11.20;99.90;;;;;;5050967;28;20882;-69
2023/06/03 04:19:17;;;;;;;3.40;3.10;;;11.20;99.90;;;;;;5050762;28;20463;-69
2023/06/03 04:21:44;;;;;;;5.13;3.30;;;11.30;99.90;;;;;;5050358;28;20284;-69
2023/06/03 04:24:12;;;;;;;3.70;3.10;;;11.30;99.90;;;;;;5050797;28;20223;-69
2023/06/03 04:26:41;;;;;;;4.00;3.17;;;11.30;99.90;;;;;;5050457;28;20208;-69
2023/06/03 04:29:09;;;;;;;3.20;2.87;;;11.30;99.90;;;;;;5050429;28;20848;-69
2023/06/03 04:31:36;;;;;;;4.03;3.10;;;11.40;99.90;;;;;;5050007;28;20839;-69
2023/06/03 04:34:03;;;;;;;4.53;3.20;;;11.40;99.90;;;;;;5050935;28;20464;-69
2023/06/03 04:36:30;;;;;;;5.27;3.23;;;11.50;99.90;;;;;;5050257;28;20566;-69
2023/06/03 04:38:58;;;;;;;5.30;3.55;;;11.50;99.90;;;;;;5050505;28;20570;-69
2023/06/03 04:41:27;;;;;;;5.33;3.20;;;11.60;99.90;;;;;;5050340;28;20217;-69
2023/06/03 04:43:54;;;;;;;7.77;3.70;;;11.60;99.90;;;;;;5049995;28;20463;-70
2023/06/03 04:46:29;;;;;;;5.85;3.28;;;11.70;99.90;;;;;;5049854;28;21163;-69
2023/06/03 04:48:57;;;;;;;6.10;3.23;;;11.80;99.90;;;;;;5050229;28;20286;-69
2023/06/03 04:51:27;;;;;;;3.57;3.27;;;11.80;99.90;;;;;;5050184;28;20459;-69
2023/06/03 04:53:54;;;;;;;3.20;2.83;;;11.90;99.90;;;;;;5050514;28;20554;-69
2023/06/03 04:56:21;;;;;;;5.43;3.00;;;12.00;99.90;;;;;;5042951;28;20487;-69
2023/06/03 04:58:48;;;;;;;5.07;3.23;;;12.10;99.90;;;;;;5029758;28;20484;-69
2023/06/03 05:01:17;;;;;;;3.40;3.10;;;12.10;99.90;;;;;;5030308;28;20518;-69
2023/06/03 05:03:45;;;;;;;8.40;4.00;;;12.20;99.90;;;;;;5030368;28;20995;-69
2023/06/03 05:06:12;;;;;;;6.00;3.57;;;12.30;99.90;;;;;;5038366;28;20460;-70
2023/06/03 05:08:39;;;;;;;6.10;3.60;;;12.30;99.90;;;;;;5035501;28;20480;-69
2023/06/03 05:11:07;;;;;;;5.63;2.93;;;12.40;99.90;;;;;;5030254;28;20469;-69
2023/06/03 05:13:34;;;;;;;5.83;3.63;;;12.50;99.90;;;;;;5030418;28;20456;-69
2023/06/03 05:16:01;;;;;;;4.40;3.67;;;12.50;99.90;;;;;;5030407;28;20480;-69
2023/06/03 05:18:27;;;;;;;4.00;2.90;;;12.60;99.90;;;;;;5030127;28;20991;-69
2023/06/03 05:20:55;;;;;;;8.33;4.10;;;12.60;99.90;;;;;;5029894;28;20551;-69
2023/06/03 05:23:22;;;;;;;5.97;2.90;;;12.70;99.90;;;;;;5030149;28;20471;-69
2023/06/03 05:25:49;;;;;;;6.13;3.80;;;12.80;99.90;;;;;;5029936;28;20452;-69
2023/06/03 05:28:16;;;;;;;9.33;3.63;;;12.90;99.90;;;;;;5030108;28;20480;-69
2023/06/03 05:30:42;;;;;;;8.10;3.83;;;12.90;99.90;;;;;;5028993;28;20465;-69
2023/06/03 05:33:09;;;;;;;5.70;3.40;;;13.00;99.90;;;;;;5030095;28;20460;-69
2023/06/03 05:35:36;;;;;;;5.10;3.30;;;13.10;99.90;;;;;;5025694;28;20999;-69
2023/06/03 05:38:05;;;;;;;7.90;4.50;;;13.10;99.90;;;;;;5022701;28;20522;-69
2023/06/03 05:40:32;;;;;;;5.23;3.60;;;13.20;99.90;;;;;;5021695;28;20999;-69
2023/06/03 05:42:59;;;;;;;4.20;3.30;;;13.30;99.90;;;;;;5025160;28;20465;-69
2023/06/03 05:45:26;;;;;;;4.43;3.50;;;13.40;99.90;;;;;;5021597;28;20511;-69
2023/06/03 05:47:53;;;;;;;3.40;2.70;;;13.50;99.90;;;;;;5023612;28;20480;-69
2023/06/03 05:50:19;;;;;;;4.67;3.77;;;13.50;99.90;;;;;;5020940;28;20457;-69
2023/06/03 05:52:46;;;;;;;4.43;3.30;;;13.70;99.90;;;;;;5023572;28;20460;-69
2023/06/03 05:55:14;;;;;;;4.13;3.30;;;13.70;99.90;;;;;;5021622;28;20460;-69
2023/06/03 05:57:41;;;;;;;8.03;3.73;;;13.70;99.90;;;;;;5026705;28;20480;-69
2023/06/03 06:00:09;;;;;;;7.40;4.30;;;13.90;99.90;;;;;;5025874;28;20559;-69
2023/06/03 06:02:36;;;;;;;5.37;3.70;;;13.90;99.90;;;;;;5027281;28;20465;-69
2023/06/03 06:05:03;;;;;;;4.27;3.10;;;14.00;99.90;;;;;;5031125;28;20451;-69
2023/06/03 06:07:30;;;;;;;6.70;3.13;;;14.10;99.90;;;;;;5053186;28;20573;-69
2023/06/03 06:09:57;;;;;;;4.63;3.50;;;14.20;99.90;;;;;;5052736;28;20466;-69
2023/06/03 06:12:25;;;;;;;2.87;2.63;;;14.30;99.90;;;;;;5053201;28;20466;-68
2023/06/03 06:14:52;;;;;;;3.40;3.10;;;14.50;99.90;;;;;;5052689;28;20459;-69
2023/06/03 06:17:20;;;;;;;4.07;3.30;;;14.60;99.90;;;;;;5053094;28;20482;-68
2023/06/03 06:19:47;;;;;;;3.50;2.80;;;14.70;99.90;;;;;;5052189;28;20870;-69
2023/06/03 06:22:14;;;;;;;5.97;3.67;;;14.80;99.90;;;;;;5052855;28;20955;-69
2023/06/03 06:24:41;;;;;;;3.83;3.43;;;14.90;99.90;;;;;;5043363;28;20467;-69
2023/06/03 06:27:10;;;;;;;4.50;3.33;;;15.00;99.90;;;;;;5033109;28;20476;-70
2023/06/03 06:29:38;;;;;;;6.53;3.50;;;15.00;99.90;;;;;;5032335;28;20464;-69
2023/06/03 06:32:05;;;;;;;3.70;3.40;;;15.10;99.90;;;;;;5032837;28;20460;-69
2023/06/03 06:34:35;;;;;;;2.80;2.57;;;15.20;99.90;;;;;;5033013;28;20464;-69
2023/06/03 06:37:02;;;;;;;4.80;3.00;;;15.30;99.90;;;;;;5032839;28;20472;-69
2023/06/03 06:39:50;;;;;;;4.30;3.27;;;15.40;99.90;;;;;;5032677;28;20464;-69
2023/06/03 06:42:29;;;;;;;3.63;2.80;;;15.40;99.90;;;;;;5027107;28;20457;-69
2023/06/03 06:44:57;;;;;;;10.00;4.37;;;15.50;99.90;;;;;;5032291;28;20467;-69
2023/06/03 06:47:25;;;;;;;4.53;3.53;;;15.50;99.90;;;;;;5032835;28;20476;-69
2023/06/03 06:49:53;;;;;;;4.40;3.07;;;15.60;99.90;;;;;;5031928;28;20456;-69
2023/06/03 06:52:21;;;;;;;4.30;3.60;;;15.60;99.90;;;;;;5032606;28;20456;-69
2023/06/03 06:54:48;;;;;;;5.00;3.23;;;15.60;99.90;;;;;;5034139;28;20477;-69
2023/06/03 06:57:20;;;;;;;6.70;3.90;;;15.70;99.90;;;;;;5052269;28;20487;-69
2023/06/03 06:59:47;;;;;;;4.90;3.20;;;15.80;99.90;;;;;;5051461;28;20491;-69
2023/06/03 07:02:15;;;;;;;3.50;3.20;;;15.90;99.90;;;;;;5052284;28;20464;-70
2023/06/03 07:04:42;;;;;;;6.37;3.67;;;16.00;99.90;;;;;;5052057;28;20498;-70
2023/06/03 07:07:09;;;;;;;4.10;3.30;;;16.10;99.90;;;;;;5051554;28;20472;-70
2023/06/03 07:09:36;;;;;;;4.27;3.27;;;16.10;99.90;;;;;;5051397;28;20463;-69
2023/06/03 07:12:03;;;;;;;5.20;4.70;;;16.30;99.90;;;;;;5051916;28;20538;-69
2023/06/03 07:14:30;;;;;;;5.33;3.40;;;16.30;99.90;;;;;;5052610;28;20459;-69
2023/06/03 07:16:56;;;;;;;6.43;3.50;;;16.40;99.90;;;;;;5051949;28;20479;-70
2023/06/03 07:19:28;;;;;;;4.67;3.13;;;16.50;99.90;;;;;;5052217;28;20459;-69
2023/06/03 07:21:54;;;;;;;5.30;3.23;;;16.60;99.90;;;;;;5051849;28;20838;-69
2023/06/03 07:24:21;;;;;;;5.33;3.40;;;16.60;99.90;;;;;;5052590;28;20494;-69
2023/06/03 07:26:48;;;;;;;5.33;3.10;;;16.60;99.90;;;;;;5051132;28;20482;-69
2023/06/03 07:29:15;;;;;;;9.70;3.87;;;16.70;99.90;;;;;;5050949;28;20460;-70
2023/06/03 07:31:42;;;;;;;3.50;3.07;;;16.70;99.90;;;;;;5051005;28;20462;-69
2023/06/03 07:34:09;;;;;;;5.40;3.20;;;16.70;99.90;;;;;;5052035;28;20464;-69
2023/06/03 07:36:37;;;;;;;4.90;3.40;;;16.80;99.90;;;;;;5051810;28;20487;-69
2023/06/03 07:39:06;;;;;;;4.77;3.60;;;16.90;99.90;;;;;;5023606;28;20884;-69
2023/06/03 07:41:38;;;;;;;4.90;3.10;;;17.00;99.90;;;;;;5031331;28;20982;-70
2023/06/03 07:44:06;;;;;;;2.83;2.50;;;17.10;99.90;;;;;;5031575;28;20471;-69
2023/06/03 07:46:42;;;;;;;4.00;3.03;;;17.20;99.90;;;;;;5031614;28;20552;-69
2023/06/03 07:49:10;;;;;;;4.67;2.93;;;17.20;99.90;;;;;;5031275;28;20472;-69
2023/06/03 07:51:40;;;;;;;6.13;3.17;;;17.20;99.90;;;;;;5031298;28;20507;-69
2023/06/03 07:54:07;;;;;;;5.87;3.50;;;17.40;99.90;;;;;;5023833;28;20818;-69
2023/06/03 07:56:35;;;;;;;9.77;3.73;;;17.50;99.90;;;;;;5031652;28;20480;-70
2023/06/03 07:59:04;;;;;;;6.63;4.43;;;17.60;99.90;;;;;;5030829;28;20504;-70
2023/06/03 08:01:31;;;;;;;6.03;4.10;;;17.80;99.90;;;;;;5031528;28;20971;-69
2023/06/03 08:03:59;;;;;;;5.30;3.60;;;17.90;99.90;;;;;;5026825;28;20868;-69
2023/06/03 08:06:27;;;;;;;4.63;3.80;;;18.10;99.90;;;;;;5032884;28;20850;-69
2023/06/03 08:08:58;;;;;;;6.23;3.80;;;18.10;99.90;;;;;;5038954;28;20480;-69
2023/06/03 08:11:25;;;;;;;4.73;3.43;;;18.10;99.90;;;;;;5038087;28;20513;-69
2023/06/03 08:13:54;;;;;;;3.93;3.20;;;18.10;99.90;;;;;;5049735;28;20466;-69
2023/06/03 08:16:21;;;;;;;5.20;3.53;;;18.20;99.90;;;;;;5050678;28;20479;-69
2023/06/03 08:18:50;;;;;;;3.83;2.80;;;18.30;99.90;;;;;;5048975;28;20479;-69
2023/06/03 08:21:18;;;;;;;5.63;3.50;;;18.40;99.90;;;;;;5050432;28;20470;-69
2023/06/03 08:23:45;;;;;;;4.47;3.67;;;18.50;99.90;;;;;;5050051;28;20470;-69
2023/06/03 08:26:13;;;;;;;4.17;3.40;;;18.70;99.90;;;;;;5049675;28;20451;-69
2023/06/03 08:28:40;;;;;;;4.80;4.00;;;18.80;99.90;;;;;;5050057;28;20479;-69
2023/06/03 08:31:07;;;;;;;7.87;4.03;;;18.80;99.90;;;;;;5038596;28;20453;-69
2023/06/03 08:33:34;;;;;;;5.00;3.40;;;19.00;99.90;;;;;;5030089;28;20464;-69
2023/06/03 08:36:00;;;;;;;5.77;3.50;;;19.10;99.90;;;;;;5029807;28;21049;-69
2023/06/03 08:38:27;;;;;;;4.40;3.77;;;19.20;99.90;;;;;;5029605;28;21163;-69
2023/06/03 08:40:54;;;;;;;4.50;3.57;;;19.40;99.90;;;;;;5028955;28;20964;-69
2023/06/03 08:43:25;;;;;;;3.90;3.43;;;19.40;99.90;;;;;;5030272;28;20457;-69
2023/06/03 08:46:02;;;;;;;4.23;3.70;;;19.40;99.70;;;;;;5031330;28;20495;-69
2023/06/03 08:48:40;;;;;;;7.43;3.50;;;19.40;99.90;;;;;;5049934;28;20514;-69
2023/06/03 08:51:08;;;;;;;4.20;3.63;;;19.60;99.90;;;;;;5049312;28;20585;-69
2023/06/03 08:53:46;;;;;;;4.20;3.47;;;19.80;99.90;;;;;;5042834;28;20475;-69
2023/06/03 08:56:16;;;;;;;4.63;3.60;;;20.00;99.90;;;;;;5029572;28;20491;-69
2023/06/03 08:58:47;;;;;;;5.77;3.80;;;20.20;99.90;;;;;;5046150;28;20483;-69
2023/06/03 09:01:16;;;;;;;5.77;3.43;;;20.30;99.90;;;;;;5049602;28;20459;-69
2023/06/03 09:03:44;;;;;;;4.80;3.60;;;20.20;99.50;;;;;;5048458;28;20463;-69
2023/06/03 09:06:13;;;;;;;4.60;3.40;;;20.20;99.90;;;;;;5049700;28;20471;-69
2023/06/03 09:08:41;;;;;;;4.10;3.47;;;20.20;99.90;;;;;;5033398;28;20481;-69
2023/06/03 09:11:11;;;;;;;4.23;3.60;;;20.30;99.90;;;;;;5036975;28;20479;-69
2023/06/03 09:13:37;;;;;;;6.07;3.43;;;20.50;99.90;;;;;;5036968;28;20848;-70
2023/06/03 09:16:06;;;;;;;5.43;4.10;;;20.70;99.90;;;;;;5047535;28;20811;-69
2023/06/03 09:18:33;;;;;;;9.83;4.50;;;20.90;99.90;;;;;;5037743;28;20829;-69
2023/06/03 09:21:00;;;;;;;4.50;3.30;;;21.10;99.90;;;;;;5047480;28;20456;-69
2023/06/03 09:23:28;;;;;;;4.30;3.77;;;21.40;99.90;;;;;;5034263;28;20469;-69
2023/06/03 09:25:55;;;;;;;11.53;4.17;;;21.50;98.80;;;;;;5027275;28;20840;-69
2023/06/03 09:28:22;;;;;;;6.80;3.10;;;21.60;99.90;;;;;;5027575;28;20860;-69
2023/06/03 09:30:48;;;;;;;4.57;4.10;;;21.60;99.30;;;;;;5045545;28;20464;-71
2023/06/03 09:33:17;;;;;;;3.93;3.43;;;21.60;99.90;;;;;;5039938;28;20835;-70
2023/06/03 09:35:44;;;;;;;4.87;3.80;;;21.70;99.90;;;;;;5032358;28;20471;-70
2023/06/03 09:38:11;;;;;;;4.70;3.17;;;21.70;99.90;;;;;;5030921;28;20495;-71
2023/06/03 09:40:38;;;;;;;4.50;3.47;;;21.80;99.90;;;;;;5045596;28;20962;-70
2023/06/03 09:43:11;;;;;;;5.97;3.80;;;21.80;99.90;;;;;;5050152;28;20465;-70
2023/06/03 09:45:38;;;;;;;5.80;3.97;;;21.90;99.90;;;;;;5052163;28;20981;-69
2023/06/03 09:48:05;;;;;;;4.37;3.77;;;22.00;99.90;;;;;;5047937;28;21045;-70
2023/06/03 09:50:33;;;;;;;5.43;3.87;;;22.10;99.90;;;;;;5046321;28;20465;-70
2023/06/03 09:53:01;;;;;;;3.77;3.20;;;22.10;97.80;;;;;;5033041;28;20474;-70
2023/06/03 09:55:32;;;;;;;5.00;3.50;;;22.10;99.90;;;;;;5031772;28;20458;-70
2023/06/03 09:58:03;;;;;;;6.03;4.10;;;22.20;99.10;;;;;;5031691;28;20527;-70
2023/06/03 10:00:32;;;;;;;5.10;3.50;;;22.20;99.60;;;;;;5031225;28;20957;-70
2023/06/03 10:03:08;;;;;;;4.37;3.90;;;22.40;99.90;;;;;;5030996;28;20462;-70
2023/06/03 10:05:37;;;;;;;7.10;3.67;;;22.50;99.90;;;;;;5031803;28;20474;-69
2023/06/03 10:08:04;;;;;;;4.10;3.70;;;22.70;99.90;;;;;;5050690;28;20483;-69
2023/06/03 10:10:33;;;;;;;4.07;3.67;;;22.80;99.90;;;;;;5050978;28;20464;-69
2023/06/03 10:13:18;;;;;;;6.30;3.80;;;22.80;99.90;;;;;;5033325;28;20496;-69
2023/06/03 10:15:45;;;;;;;4.70;3.30;;;23.00;99.60;;;;;;5031571;28;20559;-69
2023/06/03 10:18:11;;;;;;;4.70;3.30;;;23.20;99.90;;;;;;5050982;28;20485;-68
2023/06/03 10:20:41;;;;;;;4.87;3.97;;;23.20;99.40;;;;;;5051806;28;20467;-69
2023/06/03 10:23:09;;;;;;;5.23;3.73;;;23.30;99.10;;;;;;5039787;28;20472;-69
2023/06/03 10:25:41;;;;;;;4.30;3.90;;;23.30;97.80;;;;;;5031698;28;21009;-69
2023/06/03 10:28:09;;;;;;;4.47;4.07;;;23.30;98.40;;;;;;5031311;28;20515;-69
2023/06/03 10:30:36;;;;;;;4.20;3.80;;;23.30;97.70;;;;;;5030494;28;20477;-69
2023/06/03 10:33:04;;;;;;;4.33;3.90;;;23.30;98.60;;;;;;5031174;28;20460;-69
2023/06/03 10:35:32;;;;;;;5.97;4.20;;;23.40;99.60;;;;;;5031873;28;20472;-69
2023/06/03 10:38:02;;;;;;;4.60;4.10;;;23.50;99.20;;;;;;5031499;28;21003;-68
2023/06/03 10:40:29;;;;;;;6.83;4.00;;;23.60;98.70;;;;;;5030924;28;20461;-69
2023/06/03 10:42:57;;;;;;;5.70;4.07;;;23.80;99.60;;;;;;5030359;28;20460;-69
2023/06/03 10:45:24;;;;;;;5.33;4.43;;;23.90;98.40;;;;;;5031931;28;20465;-69
2023/06/03 10:47:54;;;;;;;4.23;3.83;;;23.90;97.50;;;;;;5031054;28;20572;-69
2023/06/03 10:50:31;;;;;;;5.20;4.20;;;23.80;99.20;;;;;;5031417;28;20551;-69
2023/06/03 10:53:14;;;;;;;5.33;4.17;;;23.90;98.30;;;;;;5031156;28;20461;-69
2023/06/03 10:55:55;;;;;;;5.97;3.90;;;23.90;98.60;;;;;;5028102;28;20475;-69
2023/06/03 10:58:26;;;;;;;4.03;3.37;;;24.10;98.80;;;;;;5023990;28;20994;-69
2023/06/03 11:00:55;;;;;;;4.97;3.50;;;24.30;99.40;;;;;;5027178;28;20481;-69
2023/06/03 11:03:23;;;;;;;4.33;3.93;;;24.40;98.60;;;;;;5029270;28;20465;-69
2023/06/03 11:05:51;;;;;;;4.20;3.80;;;24.50;99.10;;;;;;5030556;28;20501;-70
2023/06/03 11:08:51;;;;;;;5.03;4.33;;;24.60;96.90;;;;;;5029576;28;20496;-69
2023/06/03 11:11:52;;;;;;;4.77;4.27;;;24.70;98.20;;;;;;5031099;28;21046;-69
2023/06/03 11:14:53;;;;;;;4.60;4.10;;;24.80;97.00;;;;;;5031163;28;20503;-69
2023/06/03 11:17:22;;;;;;;4.37;3.97;;;24.90;98.60;;;;;;5042863;28;20569;-69
2023/06/03 11:19:51;;;;;;;4.00;3.70;;;25.00;98.70;;;;;;5049727;28;20478;-69
2023/06/03 11:22:46;;;;;;;5.60;4.00;;;25.10;96.80;;;;;;5050734;28;20461;-69
2023/06/03 11:25:31;;;;;;;6.47;4.47;;;25.10;97.60;;;;;;5050041;28;20462;-69
2023/06/03 11:28:34;;;;;;;4.63;3.97;;;25.20;97.10;;;;;;5050687;28;21005;-69
2023/06/03 11:31:04;;;;;;;6.13;4.40;;;25.30;97.40;;;;;;5038666;28;20473;-69
2023/06/03 11:33:32;;;;;;;5.10;4.10;;;25.50;96.60;;;;;;5031795;28;20480;-69
2023/06/03 11:36:19;;;;;;;5.00;3.97;;;25.50;96.50;;;;;;5031353;28;20474;-69
2023/06/03 11:38:59;;;;;;;5.10;3.90;;;25.60;97.00;;;;;;5029868;28;20509;-69
2023/06/03 11:42:01;;;;;;;4.87;4.00;;;25.70;96.90;;;;;;5030325;28;20461;-69
2023/06/03 11:44:28;;;;;;;4.93;4.43;;;25.80;97.40;;;;;;5030946;28;20468;-69
2023/06/03 11:46:55;;;;;;;4.80;4.03;;;26.00;95.80;;;;;;5030374;28;20858;-69
2023/06/03 11:49:24;;;;;;;5.10;4.60;;;26.20;96.60;;;;;;5031419;28;20460;-69
2023/06/03 11:51:53;;;;;;;5.83;4.50;;;26.10;95.30;;;;;;5031150;28;20467;-69
2023/06/03 11:54:21;;;;;;;4.50;4.10;;;26.00;96.00;;;;;;5021973;28;20558;-69
2023/06/03 11:56:49;;;;;;;5.80;4.07;;;26.10;97.00;;;;;;5031129;28;20496;-69
2023/06/03 11:59:19;;;;;;;6.23;3.93;;;26.10;95.80;;;;;;5029425;28;20968;-69
2023/06/03 12:02:00;;;;;;;4.07;3.67;;;25.90;95.40;;;;;;5030313;28;20463;-69
2023/06/03 12:04:28;;;;;;;6.37;4.20;;;25.80;96.20;;;;;;5028273;28;20472;-69
2023/06/03 12:06:56;;;;;;;4.40;4.00;;;25.80;94.90;;;;;;5029568;28;20466;-69
2023/06/03 12:09:25;;;;;;;6.53;4.20;;;25.90;97.60;;;;;;5032454;28;20471;-69
2023/06/03 12:11:52;;;;;;;4.03;3.73;;;26.00;94.90;;;;;;5049023;28;20821;-69
2023/06/03 12:14:27;;;;;;;5.23;4.73;;;26.20;96.20;;;;;;5032919;28;20471;-69
2023/06/03 12:16:55;;;;;;;5.00;4.50;;;26.50;97.00;;;;;;5049388;28;20503;-69
2023/06/03 12:19:22;;;;;;;5.20;4.20;;;26.80;95.60;;;;;;5049308;28;20509;-69
2023/06/03 12:21:58;;;;;;;4.27;3.87;;;26.80;95.20;;;;;;5049104;28;20475;-69
2023/06/03 12:24:29;;;;;;;4.73;4.30;;;26.50;92.40;;;;;;5049588;28;20470;-69
2023/06/03 12:26:57;;;;;;;4.30;3.90;;;26.00;93.80;;;;;;5049309;28;20475;-68
2023/06/03 12:29:24;;;;;;;4.03;3.63;;;25.90;94.70;;;;;;5043214;28;20838;-69
2023/06/03 12:31:58;;;;;;;6.07;4.47;;;25.90;94.50;;;;;;5037297;28;21311;-68
2023/06/03 12:34:34;;;;;;;3.93;3.57;;;25.70;94.60;;;;;;5034948;28;20474;-69
2023/06/03 12:37:02;;;;;;;7.97;4.87;;;25.50;94.00;;;;;;5046271;28;20553;-70
2023/06/03 12:39:44;;;;;;;5.07;3.97;;;25.30;92.40;;;;;;5029054;28;20482;-69
2023/06/03 12:42:12;;;;;;;4.87;3.60;;;24.70;92.60;;;;;;5028583;28;20464;-69
2023/06/03 12:44:43;;;;;;;4.97;4.33;;;24.60;94.40;;;;;;5028572;28;20475;-69
2023/06/03 12:47:10;;;;;;;4.50;4.10;;;24.60;95.20;;;;;;5047232;28;20567;-69
2023/06/03 12:49:37;;;;;;;3.97;3.60;;;24.60;95.70;;;;;;5043079;28;20481;-68
2023/06/03 12:52:13;;;;;;;4.87;4.17;;;24.50;95.70;;;;;;5028268;28;20835;-69
2023/06/03 12:54:40;;;;;;;4.10;3.80;;;24.40;97.70;;;;;;5028792;28;20475;-69
2023/06/03 12:57:07;;;;;;;7.27;4.57;;;24.40;96.60;;;;;;5028431;28;21005;-69
2023/06/03 12:59:34;;;;;;;3.83;3.50;;;24.60;96.30;;;;;;5033917;28;20484;-68